sensor_id;sensor_type;location;lat;lon;timestamp;P1;durP1;ratioP1;P2;durP2;ratioP2
6007;SDS011;3032;49.484;11.112;2023-11-22T00:01:52;4.83;;;4.33;;
6007;SDS011;3032;49.484;11.112;2023-11-22T00:04:18;3.88;;;3.58;;
6007;SDS011;3032;49.484;11.112;2023-11-22T00:06:45;4.05;;;3.65;;
6007;SDS011;3032;49.484;11.112;2023-11-22T00:09:10;3.80;;;3.43;;
6007;SDS011;3032;49.484;11.112;2023-11-22T00:11:36;3.63;;;3.33;;
6007;SDS011;3032;49.484;11.112;2023-11-22T00:14:02;4.00;;;3.60;;
6007;SDS011;3032;49.484;11.112;2023-11-22T00:16:27;3.30;;;3.00;;
6007;SDS011;3032;49.484;11.112;2023-11-22T00:18:53;3.53;;;3.23;;
6007;SDS011;3032;49.484;11.112;2023-11-22T00:21:19;3.83;;;3.47;;
6007;SDS011;3032;49.484;11.112;2023-11-22T00:23:45;3.90;;;3.60;;
6007;SDS011;3032;49.484;11.112;2023-11-22T00:26:11;6.50;;;4.93;;
6007;SDS011;3032;49.484;11.112;2023-11-22T00:28:37;6.83;;;5.23;;
6007;SDS011;3032;49.484;11.112;2023-11-22T00:31:03;8.40;;;5.40;;
6007;SDS011;3032;49.484;11.112;2023-11-22T00:33:28;5.13;;;4.60;;
6007;SDS011;3032;49.484;11.112;2023-11-22T00:35:56;5.10;;;4.60;;
6007;SDS011;3032;49.484;11.112;2023-11-22T00:38:23;5.72;;;4.75;;
6007;SDS011;3032;49.484;11.112;2023-11-22T00:40:49;5.53;;;4.55;;
6007;SDS011;3032;49.484;11.112;2023-11-22T00:43:15;4.43;;;4.07;;
6007;SDS011;3032;49.484;11.112;2023-11-22T00:45:40;4.10;;;3.80;;
6007;SDS011;3032;49.484;11.112;2023-11-22T00:48:06;4.63;;;4.20;;
6007;SDS011;3032;49.484;11.112;2023-11-22T00:50:32;4.77;;;4.37;;
6007;SDS011;3032;49.484;11.112;2023-11-22T00:52:58;5.60;;;5.10;;
6007;SDS011;3032;49.484;11.112;2023-11-22T00:55:23;5.50;;;4.50;;
6007;SDS011;3032;49.484;11.112;2023-11-22T00:57:49;7.67;;;5.80;;
6007;SDS011;3032;49.484;11.112;2023-11-22T01:00:15;5.73;;;4.90;;
6007;SDS011;3032;49.484;11.112;2023-11-22T01:02:40;4.78;;;4.00;;
6007;SDS011;3032;49.484;11.112;2023-11-22T01:05:06;6.87;;;4.10;;
6007;SDS011;3032;49.484;11.112;2023-11-22T01:07:42;3.83;;;3.53;;
6007;SDS011;3032;49.484;11.112;2023-11-22T01:10:08;3.97;;;3.63;;
6007;SDS011;3032;49.484;11.112;2023-11-22T01:12:34;3.63;;;3.33;;
6007;SDS011;3032;49.484;11.112;2023-11-22T01:14:59;4.30;;;3.90;;
6007;SDS011;3032;49.484;11.112;2023-11-22T01:17:25;4.33;;;3.90;;
6007;SDS011;3032;49.484;11.112;2023-11-22T01:19:50;5.00;;;4.00;;
6007;SDS011;3032;49.484;11.112;2023-11-22T01:22:17;3.50;;;3.17;;
6007;SDS011;3032;49.484;11.112;2023-11-22T01:24:42;4.13;;;3.73;;
6007;SDS011;3032;49.484;11.112;2023-11-22T01:27:08;3.83;;;3.50;;
6007;SDS011;3032;49.484;11.112;2023-11-22T01:29:34;4.70;;;3.85;;
6007;SDS011;3032;49.484;11.112;2023-11-22T01:32:00;3.20;;;3.00;;
6007;SDS011;3032;49.484;11.112;2023-11-22T01:34:26;5.40;;;4.20;;
6007;SDS011;3032;49.484;11.112;2023-11-22T01:36:51;5.90;;;4.93;;
6007;SDS011;3032;49.484;11.112;2023-11-22T01:39:17;5.07;;;4.33;;
6007;SDS011;3032;49.484;11.112;2023-11-22T01:41:46;3.87;;;3.50;;
6007;SDS011;3032;49.484;11.112;2023-11-22T01:44:14;5.35;;;4.55;;
6007;SDS011;3032;49.484;11.112;2023-11-22T01:46:40;4.75;;;3.80;;
6007;SDS011;3032;49.484;11.112;2023-11-22T01:49:08;5.75;;;4.00;;
6007;SDS011;3032;49.484;11.112;2023-11-22T01:51:35;6.00;;;4.20;;
6007;SDS011;3032;49.484;11.112;2023-11-22T01:54:01;6.70;;;4.20;;
6007;SDS011;3032;49.484;11.112;2023-11-22T01:56:27;4.38;;;3.88;;
6007;SDS011;3032;49.484;11.112;2023-11-22T01:58:56;5.55;;;4.13;;
6007;SDS011;3032;49.484;11.112;2023-11-22T02:01:25;4.45;;;4.07;;
6007;SDS011;3032;49.484;11.112;2023-11-22T02:03:51;5.47;;;4.93;;
6007;SDS011;3032;49.484;11.112;2023-11-22T02:06:18;4.60;;;4.20;;
6007;SDS011;3032;49.484;11.112;2023-11-22T02:08:46;4.85;;;4.45;;
6007;SDS011;3032;49.484;11.112;2023-11-22T02:11:12;5.47;;;4.87;;
6007;SDS011;3032;49.484;11.112;2023-11-22T02:13:38;6.60;;;4.80;;
6007;SDS011;3032;49.484;11.112;2023-11-22T02:16:03;5.17;;;4.67;;
6007;SDS011;3032;49.484;11.112;2023-11-22T02:18:29;6.90;;;4.78;;
6007;SDS011;3032;49.484;11.112;2023-11-22T02:20:56;4.82;;;4.35;;
6007;SDS011;3032;49.484;11.112;2023-11-22T02:26:44;5.50;;;4.40;;
6007;SDS011;3032;49.484;11.112;2023-11-22T02:29:10;4.50;;;4.10;;
6007;SDS011;3032;49.484;11.112;2023-11-22T02:31:37;5.00;;;4.50;;
6007;SDS011;3032;49.484;11.112;2023-11-22T02:34:04;6.18;;;4.82;;
6007;SDS011;3032;49.484;11.112;2023-11-22T02:36:30;5.95;;;4.88;;
6007;SDS011;3032;49.484;11.112;2023-11-22T02:38:56;4.70;;;4.20;;
6007;SDS011;3032;49.484;11.112;2023-11-22T02:41:21;5.27;;;4.50;;
6007;SDS011;3032;49.484;11.112;2023-11-22T02:43:47;4.90;;;4.40;;
6007;SDS011;3032;49.484;11.112;2023-11-22T02:46:12;5.00;;;4.50;;
6007;SDS011;3032;49.484;11.112;2023-11-22T02:48:39;4.97;;;4.45;;
6007;SDS011;3032;49.484;11.112;2023-11-22T02:51:04;5.00;;;4.50;;
6007;SDS011;3032;49.484;11.112;2023-11-22T02:53:31;5.15;;;4.65;;
6007;SDS011;3032;49.484;11.112;2023-11-22T02:56:00;4.90;;;4.43;;
6007;SDS011;3032;49.484;11.112;2023-11-22T02:58:26;4.93;;;4.40;;
6007;SDS011;3032;49.484;11.112;2023-11-22T03:00:55;5.75;;;4.85;;
6007;SDS011;3032;49.484;11.112;2023-11-22T03:03:22;5.50;;;4.93;;
6007;SDS011;3032;49.484;11.112;2023-11-22T03:05:48;6.00;;;5.13;;
6007;SDS011;3032;49.484;11.112;2023-11-22T03:08:15;5.97;;;4.47;;
6007;SDS011;3032;49.484;11.112;2023-11-22T03:10:41;5.20;;;4.50;;
6007;SDS011;3032;49.484;11.112;2023-11-22T03:13:07;4.60;;;4.20;;
6007;SDS011;3032;49.484;11.112;2023-11-22T03:15:33;4.93;;;4.50;;
6007;SDS011;3032;49.484;11.112;2023-11-22T03:17:59;4.28;;;3.97;;
6007;SDS011;3032;49.484;11.112;2023-11-22T03:20:26;4.50;;;4.10;;
6007;SDS011;3032;49.484;11.112;2023-11-22T03:22:52;5.37;;;4.77;;
6007;SDS011;3032;49.484;11.112;2023-11-22T03:25:17;4.70;;;4.30;;
6007;SDS011;3032;49.484;11.112;2023-11-22T03:27:43;4.53;;;4.13;;
6007;SDS011;3032;49.484;11.112;2023-11-22T03:30:09;7.10;;;3.45;;
6007;SDS011;3032;49.484;11.112;2023-11-22T03:32:37;5.32;;;4.10;;
6007;SDS011;3032;49.484;11.112;2023-11-22T03:35:05;4.65;;;4.00;;
6007;SDS011;3032;49.484;11.112;2023-11-22T03:37:31;7.60;;;4.00;;
6007;SDS011;3032;49.484;11.112;2023-11-22T03:39:57;5.50;;;4.70;;
6007;SDS011;3032;49.484;11.112;2023-11-22T03:42:23;4.57;;;4.17;;
6007;SDS011;3032;49.484;11.112;2023-11-22T03:44:48;4.67;;;4.17;;
6007;SDS011;3032;49.484;11.112;2023-11-22T03:47:14;6.00;;;4.40;;
6007;SDS011;3032;49.484;11.112;2023-11-22T03:49:40;4.10;;;3.80;;
6007;SDS011;3032;49.484;11.112;2023-11-22T03:52:07;4.10;;;3.80;;
6007;SDS011;3032;49.484;11.112;2023-11-22T03:54:35;4.18;;;3.78;;
6007;SDS011;3032;49.484;11.112;2023-11-22T03:57:01;4.50;;;4.10;;
6007;SDS011;3032;49.484;11.112;2023-11-22T03:59:27;4.87;;;4.33;;
6007;SDS011;3032;49.484;11.112;2023-11-22T04:01:53;3.30;;;3.10;;
6007;SDS011;3032;49.484;11.112;2023-11-22T04:04:19;4.03;;;3.73;;
6007;SDS011;3032;49.484;11.112;2023-11-22T04:06:45;3.95;;;3.65;;
6007;SDS011;3032;49.484;11.112;2023-11-22T04:09:10;4.13;;;3.80;;
6007;SDS011;3032;49.484;11.112;2023-11-22T04:11:39;4.43;;;3.72;;
6007;SDS011;3032;49.484;11.112;2023-11-22T04:14:05;3.88;;;3.58;;
6007;SDS011;3032;49.484;11.112;2023-11-22T04:16:31;4.87;;;4.37;;
6007;SDS011;3032;49.484;11.112;2023-11-22T04:18:57;4.43;;;3.60;;
6007;SDS011;3032;49.484;11.112;2023-11-22T04:21:22;5.20;;;4.43;;
6007;SDS011;3032;49.484;11.112;2023-11-22T04:23:49;3.70;;;3.40;;
6007;SDS011;3032;49.484;11.112;2023-11-22T04:26:14;4.37;;;3.97;;
6007;SDS011;3032;49.484;11.112;2023-11-22T04:28:40;4.05;;;3.75;;
6007;SDS011;3032;49.484;11.112;2023-11-22T04:31:06;5.03;;;4.53;;
6007;SDS011;3032;49.484;11.112;2023-11-22T04:33:33;4.20;;;3.80;;
6007;SDS011;3032;49.484;11.112;2023-11-22T04:35:59;5.20;;;4.70;;
6007;SDS011;3032;49.484;11.112;2023-11-22T04:38:25;5.10;;;4.63;;
6007;SDS011;3032;49.484;11.112;2023-11-22T04:40:51;4.47;;;4.07;;
6007;SDS011;3032;49.484;11.112;2023-11-22T04:43:17;4.83;;;4.43;;
6007;SDS011;3032;49.484;11.112;2023-11-22T04:45:42;4.53;;;3.90;;
6007;SDS011;3032;49.484;11.112;2023-11-22T04:48:08;4.90;;;4.40;;
6007;SDS011;3032;49.484;11.112;2023-11-22T04:50:34;7.80;;;4.05;;
6007;SDS011;3032;49.484;11.112;2023-11-22T04:53:00;4.50;;;4.10;;
6007;SDS011;3032;49.484;11.112;2023-11-22T04:55:29;6.40;;;4.68;;
6007;SDS011;3032;49.484;11.112;2023-11-22T04:57:55;5.00;;;4.43;;
6007;SDS011;3032;49.484;11.112;2023-11-22T05:00:21;5.17;;;4.67;;
6007;SDS011;3032;49.484;11.112;2023-11-22T05:02:49;5.20;;;4.70;;
6007;SDS011;3032;49.484;11.112;2023-11-22T05:05:15;6.40;;;5.10;;
6007;SDS011;3032;49.484;11.112;2023-11-22T05:07:41;6.45;;;4.65;;
6007;SDS011;3032;49.484;11.112;2023-11-22T05:10:07;5.47;;;4.40;;
6007;SDS011;3032;49.484;11.112;2023-11-22T05:12:35;5.00;;;4.60;;
6007;SDS011;3032;49.484;11.112;2023-11-22T05:15:01;5.70;;;4.87;;
6007;SDS011;3032;49.484;11.112;2023-11-22T05:17:27;5.15;;;4.35;;
6007;SDS011;3032;49.484;11.112;2023-11-22T05:19:53;5.90;;;5.00;;
6007;SDS011;3032;49.484;11.112;2023-11-22T05:22:19;6.73;;;5.23;;
6007;SDS011;3032;49.484;11.112;2023-11-22T05:24:44;6.47;;;5.40;;
6007;SDS011;3032;49.484;11.112;2023-11-22T05:27:10;5.30;;;4.80;;
6007;SDS011;3032;49.484;11.112;2023-11-22T05:29:35;7.40;;;5.27;;
6007;SDS011;3032;49.484;11.112;2023-11-22T05:32:01;6.83;;;5.50;;
6007;SDS011;3032;49.484;11.112;2023-11-22T05:34:27;9.70;;;6.75;;
6007;SDS011;3032;49.484;11.112;2023-11-22T05:36:57;8.23;;;6.32;;
6007;SDS011;3032;49.484;11.112;2023-11-22T05:39:22;7.30;;;6.07;;
6007;SDS011;3032;49.484;11.112;2023-11-22T05:41:49;11.60;;;6.65;;
6007;SDS011;3032;49.484;11.112;2023-11-22T05:44:15;8.13;;;6.65;;
6007;SDS011;3032;49.484;11.112;2023-11-22T05:46:40;7.93;;;6.27;;
6007;SDS011;3032;49.484;11.112;2023-11-22T05:49:07;11.18;;;7.22;;
6007;SDS011;3032;49.484;11.112;2023-11-22T05:51:32;7.47;;;6.10;;
6007;SDS011;3032;49.484;11.112;2023-11-22T05:53:58;8.85;;;6.78;;
6007;SDS011;3032;49.484;11.112;2023-11-22T05:56:24;8.80;;;6.73;;
6007;SDS011;3032;49.484;11.112;2023-11-22T05:58:50;9.87;;;7.03;;
6007;SDS011;3032;49.484;11.112;2023-11-22T06:01:15;9.40;;;7.10;;
6007;SDS011;3032;49.484;11.112;2023-11-22T06:03:42;8.70;;;6.97;;
6007;SDS011;3032;49.484;11.112;2023-11-22T06:06:07;9.05;;;7.00;;
6007;SDS011;3032;49.484;11.112;2023-11-22T06:08:33;9.33;;;6.97;;
6007;SDS011;3032;49.484;11.112;2023-11-22T06:10:59;9.60;;;7.40;;
6007;SDS011;3032;49.484;11.112;2023-11-22T06:13:25;9.27;;;7.23;;
6007;SDS011;3032;49.484;11.112;2023-11-22T06:15:51;10.02;;;7.15;;
6007;SDS011;3032;49.484;11.112;2023-11-22T06:18:17;10.40;;;8.10;;
6007;SDS011;3032;49.484;11.112;2023-11-22T06:20:43;11.25;;;7.75;;
6007;SDS011;3032;49.484;11.112;2023-11-22T06:23:10;9.88;;;7.60;;
6007;SDS011;3032;49.484;11.112;2023-11-22T06:25:35;8.97;;;7.50;;
6007;SDS011;3032;49.484;11.112;2023-11-22T06:28:01;9.17;;;7.23;;
6007;SDS011;3032;49.484;11.112;2023-11-22T06:30:27;9.35;;;7.55;;
6007;SDS011;3032;49.484;11.112;2023-11-22T06:32:53;12.73;;;7.60;;
6007;SDS011;3032;49.484;11.112;2023-11-22T06:35:18;9.50;;;7.30;;
6007;SDS011;3032;49.484;11.112;2023-11-22T06:37:44;10.27;;;7.70;;
6007;SDS011;3032;49.484;11.112;2023-11-22T06:40:10;10.27;;;7.43;;
6007;SDS011;3032;49.484;11.112;2023-11-22T06:42:42;10.63;;;7.30;;
6007;SDS011;3032;49.484;11.112;2023-11-22T06:45:08;9.18;;;7.57;;
6007;SDS011;3032;49.484;11.112;2023-11-22T06:47:44;9.35;;;7.85;;
6007;SDS011;3032;49.484;11.112;2023-11-22T06:50:09;8.85;;;7.15;;
6007;SDS011;3032;49.484;11.112;2023-11-22T06:52:36;9.80;;;7.90;;
6007;SDS011;3032;49.484;11.112;2023-11-22T06:55:03;9.80;;;8.25;;
6007;SDS011;3032;49.484;11.112;2023-11-22T06:57:29;10.90;;;8.00;;
6007;SDS011;3032;49.484;11.112;2023-11-22T06:59:55;11.40;;;8.27;;
6007;SDS011;3032;49.484;11.112;2023-11-22T07:02:21;9.02;;;7.50;;
6007;SDS011;3032;49.484;11.112;2023-11-22T07:04:47;10.13;;;7.80;;
6007;SDS011;3032;49.484;11.112;2023-11-22T07:07:13;8.23;;;7.03;;
6007;SDS011;3032;49.484;11.112;2023-11-22T07:09:43;10.55;;;8.10;;
6007;SDS011;3032;49.484;11.112;2023-11-22T07:12:09;10.70;;;7.53;;
6007;SDS011;3032;49.484;11.112;2023-11-22T07:14:35;8.55;;;7.50;;
6007;SDS011;3032;49.484;11.112;2023-11-22T07:17:01;10.52;;;8.30;;
6007;SDS011;3032;49.484;11.112;2023-11-22T07:19:27;9.05;;;6.60;;
6007;SDS011;3032;49.484;11.112;2023-11-22T07:21:53;9.00;;;6.60;;
6007;SDS011;3032;49.484;11.112;2023-11-22T07:24:19;7.80;;;6.10;;
6007;SDS011;3032;49.484;11.112;2023-11-22T07:26:44;6.20;;;5.57;;
6007;SDS011;3032;49.484;11.112;2023-11-22T07:29:10;6.10;;;5.43;;
6007;SDS011;3032;49.484;11.112;2023-11-22T07:31:37;7.85;;;6.07;;
6007;SDS011;3032;49.484;11.112;2023-11-22T07:34:03;7.85;;;6.25;;
6007;SDS011;3032;49.484;11.112;2023-11-22T07:36:29;9.57;;;7.17;;
6007;SDS011;3032;49.484;11.112;2023-11-22T07:38:55;10.13;;;7.05;;
6007;SDS011;3032;49.484;11.112;2023-11-22T07:41:21;9.05;;;7.35;;
6007;SDS011;3032;49.484;11.112;2023-11-22T07:43:47;10.90;;;7.70;;
6007;SDS011;3032;49.484;11.112;2023-11-22T07:46:13;9.20;;;8.13;;
6007;SDS011;3032;49.484;11.112;2023-11-22T07:48:39;10.67;;;8.17;;
6007;SDS011;3032;49.484;11.112;2023-11-22T07:51:06;12.88;;;9.07;;
6007;SDS011;3032;49.484;11.112;2023-11-22T07:53:32;12.00;;;8.43;;
6007;SDS011;3032;49.484;11.112;2023-11-22T07:55:59;12.00;;;8.82;;
6007;SDS011;3032;49.484;11.112;2023-11-22T07:58:29;12.20;;;9.10;;
6007;SDS011;3032;49.484;11.112;2023-11-22T08:00:56;10.68;;;8.40;;
6007;SDS011;3032;49.484;11.112;2023-11-22T08:03:23;12.90;;;9.35;;
6007;SDS011;3032;49.484;11.112;2023-11-22T08:05:50;10.65;;;8.77;;
6007;SDS011;3032;49.484;11.112;2023-11-22T08:08:20;12.63;;;9.50;;
6007;SDS011;3032;49.484;11.112;2023-11-22T08:10:47;15.60;;;11.13;;
6007;SDS011;3032;49.484;11.112;2023-11-22T08:13:14;14.70;;;10.10;;
6007;SDS011;3032;49.484;11.112;2023-11-22T08:15:41;14.48;;;9.85;;
6007;SDS011;3032;49.484;11.112;2023-11-22T08:18:06;16.13;;;9.67;;
6007;SDS011;3032;49.484;11.112;2023-11-22T08:20:32;12.53;;;9.40;;
6007;SDS011;3032;49.484;11.112;2023-11-22T08:22:58;15.23;;;9.87;;
6007;SDS011;3032;49.484;11.112;2023-11-22T08:25:23;16.37;;;11.33;;
6007;SDS011;3032;49.484;11.112;2023-11-22T08:27:49;14.67;;;9.70;;
6007;SDS011;3032;49.484;11.112;2023-11-22T08:30:14;14.37;;;9.83;;
6007;SDS011;3032;49.484;11.112;2023-11-22T08:32:43;15.00;;;10.33;;
6007;SDS011;3032;49.484;11.112;2023-11-22T08:35:13;14.50;;;10.10;;
6007;SDS011;3032;49.484;11.112;2023-11-22T08:37:40;12.60;;;9.60;;
6007;SDS011;3032;49.484;11.112;2023-11-22T08:40:09;15.48;;;9.50;;
6007;SDS011;3032;49.484;11.112;2023-11-22T08:42:42;15.40;;;9.88;;
6007;SDS011;3032;49.484;11.112;2023-11-22T08:45:08;13.90;;;10.13;;
6007;SDS011;3032;49.484;11.112;2023-11-22T08:47:36;12.50;;;9.00;;
6007;SDS011;3032;49.484;11.112;2023-11-22T08:50:02;13.40;;;9.10;;
6007;SDS011;3032;49.484;11.112;2023-11-22T08:52:28;13.15;;;9.25;;
6007;SDS011;3032;49.484;11.112;2023-11-22T08:54:55;12.25;;;9.25;;
6007;SDS011;3032;49.484;11.112;2023-11-22T08:57:21;15.13;;;9.70;;
6007;SDS011;3032;49.484;11.112;2023-11-22T08:59:47;14.10;;;9.10;;
6007;SDS011;3032;49.484;11.112;2023-11-22T09:02:12;16.33;;;9.60;;
6007;SDS011;3032;49.484;11.112;2023-11-22T09:04:39;12.10;;;9.55;;
6007;SDS011;3032;49.484;11.112;2023-11-22T09:07:06;11.60;;;9.27;;
6007;SDS011;3032;49.484;11.112;2023-11-22T09:09:32;16.30;;;9.95;;
6007;SDS011;3032;49.484;11.112;2023-11-22T09:11:59;12.48;;;9.05;;
6007;SDS011;3032;49.484;11.112;2023-11-22T09:14:26;13.63;;;9.50;;
6007;SDS011;3032;49.484;11.112;2023-11-22T09:16:51;12.83;;;9.40;;
6007;SDS011;3032;49.484;11.112;2023-11-22T09:19:23;11.80;;;9.35;;
6007;SDS011;3032;49.484;11.112;2023-11-22T09:21:53;13.15;;;9.15;;
6007;SDS011;3032;49.484;11.112;2023-11-22T09:24:18;12.60;;;8.67;;
6007;SDS011;3032;49.484;11.112;2023-11-22T09:26:44;12.47;;;9.50;;
6007;SDS011;3032;49.484;11.112;2023-11-22T09:29:10;11.07;;;8.80;;
6007;SDS011;3032;49.484;11.112;2023-11-22T09:31:39;11.50;;;9.45;;
6007;SDS011;3032;49.484;11.112;2023-11-22T09:34:07;13.00;;;9.90;;
6007;SDS011;3032;49.484;11.112;2023-11-22T09:36:33;11.45;;;9.15;;
6007;SDS011;3032;49.484;11.112;2023-11-22T09:38:59;12.50;;;9.00;;
6007;SDS011;3032;49.484;11.112;2023-11-22T09:41:24;11.27;;;8.73;;
6007;SDS011;3032;49.484;11.112;2023-11-22T09:43:52;12.90;;;10.15;;
6007;SDS011;3032;49.484;11.112;2023-11-22T09:46:18;12.70;;;9.13;;
6007;SDS011;3032;49.484;11.112;2023-11-22T09:48:46;10.70;;;8.35;;
6007;SDS011;3032;49.484;11.112;2023-11-22T09:51:24;11.88;;;8.38;;
6007;SDS011;3032;49.484;11.112;2023-11-22T09:53:57;11.50;;;8.98;;
6007;SDS011;3032;49.484;11.112;2023-11-22T09:56:33;11.07;;;8.00;;
6007;SDS011;3032;49.484;11.112;2023-11-22T09:59:02;10.43;;;8.43;;
6007;SDS011;3032;49.484;11.112;2023-11-22T10:01:28;11.82;;;8.30;;
6007;SDS011;3032;49.484;11.112;2023-11-22T10:03:55;9.60;;;7.55;;
6007;SDS011;3032;49.484;11.112;2023-11-22T10:06:22;10.30;;;7.30;;
6007;SDS011;3032;49.484;11.112;2023-11-22T10:08:48;12.27;;;8.65;;
6007;SDS011;3032;49.484;11.112;2023-11-22T10:11:14;11.43;;;7.90;;
6007;SDS011;3032;49.484;11.112;2023-11-22T10:13:44;9.70;;;7.35;;
6007;SDS011;3032;49.484;11.112;2023-11-22T10:16:13;10.48;;;8.13;;
6007;SDS011;3032;49.484;11.112;2023-11-22T10:18:47;11.55;;;8.13;;
6007;SDS011;3032;49.484;11.112;2023-11-22T10:21:23;11.00;;;7.88;;
6007;SDS011;3032;49.484;11.112;2023-11-22T10:23:50;13.85;;;8.27;;
6007;SDS011;3032;49.484;11.112;2023-11-22T10:26:21;12.10;;;8.25;;
6007;SDS011;3032;49.484;11.112;2023-11-22T10:28:50;9.55;;;7.63;;
6007;SDS011;3032;49.484;11.112;2023-11-22T10:31:17;9.40;;;7.03;;
6007;SDS011;3032;49.484;11.112;2023-11-22T10:33:43;8.25;;;7.10;;
6007;SDS011;3032;49.484;11.112;2023-11-22T10:36:09;10.27;;;7.27;;
6007;SDS011;3032;49.484;11.112;2023-11-22T10:38:35;9.60;;;7.43;;
6007;SDS011;3032;49.484;11.112;2023-11-22T10:41:04;11.63;;;7.90;;
6007;SDS011;3032;49.484;11.112;2023-11-22T10:43:30;10.50;;;7.43;;
6007;SDS011;3032;49.484;11.112;2023-11-22T10:46:00;9.88;;;7.30;;
6007;SDS011;3032;49.484;11.112;2023-11-22T10:48:27;9.52;;;6.75;;
6007;SDS011;3032;49.484;11.112;2023-11-22T10:50:55;9.90;;;7.55;;
6007;SDS011;3032;49.484;11.112;2023-11-22T10:53:22;9.38;;;7.18;;
6007;SDS011;3032;49.484;11.112;2023-11-22T10:58:48;9.20;;;7.03;;
6007;SDS011;3032;49.484;11.112;2023-11-22T11:01:15;12.85;;;7.82;;
6007;SDS011;3032;49.484;11.112;2023-11-22T11:04:18;8.32;;;7.10;;
6007;SDS011;3032;49.484;11.112;2023-11-22T11:06:42;9.52;;;6.97;;
6007;SDS011;3032;49.484;11.112;2023-11-22T11:09:11;10.68;;;7.68;;
6007;SDS011;3032;49.484;11.112;2023-11-22T11:11:40;9.50;;;7.32;;
6007;SDS011;3032;49.484;11.112;2023-11-22T11:14:06;8.90;;;6.55;;
6007;SDS011;3032;49.484;11.112;2023-11-22T11:16:36;10.20;;;6.85;;
6007;SDS011;3032;49.484;11.112;2023-11-22T11:19:06;8.98;;;7.20;;
6007;SDS011;3032;49.484;11.112;2023-11-22T11:21:34;8.57;;;6.70;;
6007;SDS011;3032;49.484;11.112;2023-11-22T11:24:00;8.47;;;7.30;;
6007;SDS011;3032;49.484;11.112;2023-11-22T11:26:28;9.85;;;7.53;;
6007;SDS011;3032;49.484;11.112;2023-11-22T11:28:57;9.02;;;7.22;;
6007;SDS011;3032;49.484;11.112;2023-11-22T11:31:23;9.40;;;7.15;;
6007;SDS011;3032;49.484;11.112;2023-11-22T11:36:22;9.82;;;7.05;;
6007;SDS011;3032;49.484;11.112;2023-11-22T11:38:50;11.65;;;8.02;;
6007;SDS011;3032;49.484;11.112;2023-11-22T11:41:17;9.60;;;7.40;;
6007;SDS011;3032;49.484;11.112;2023-11-22T11:43:46;9.83;;;7.03;;
6007;SDS011;3032;49.484;11.112;2023-11-22T11:46:16;9.65;;;7.55;;
6007;SDS011;3032;49.484;11.112;2023-11-22T11:48:42;7.60;;;6.80;;
6007;SDS011;3032;49.484;11.112;2023-11-22T11:51:09;9.32;;;7.07;;
6007;SDS011;3032;49.484;11.112;2023-11-22T11:53:38;8.10;;;7.15;;
6007;SDS011;3032;49.484;11.112;2023-11-22T11:56:04;9.97;;;7.00;;
6007;SDS011;3032;49.484;11.112;2023-11-22T11:58:30;8.80;;;7.28;;
6007;SDS011;3032;49.484;11.112;2023-11-22T12:00:56;8.52;;;7.05;;
6007;SDS011;3032;49.484;11.112;2023-11-22T12:03:22;9.47;;;7.13;;
6007;SDS011;3032;49.484;11.112;2023-11-22T12:05:48;9.10;;;7.57;;
6007;SDS011;3032;49.484;11.112;2023-11-22T12:08:17;10.02;;;7.50;;
6007;SDS011;3032;49.484;11.112;2023-11-22T12:10:44;11.73;;;8.25;;
6007;SDS011;3032;49.484;11.112;2023-11-22T12:13:16;8.07;;;6.50;;
6007;SDS011;3032;49.484;11.112;2023-11-22T12:15:42;7.80;;;6.40;;
6007;SDS011;3032;49.484;11.112;2023-11-22T12:18:08;7.30;;;6.30;;
6007;SDS011;3032;49.484;11.112;2023-11-22T12:20:34;8.40;;;6.43;;
6007;SDS011;3032;49.484;11.112;2023-11-22T12:23:00;8.20;;;6.35;;
6007;SDS011;3032;49.484;11.112;2023-11-22T12:25:27;8.30;;;7.00;;
6007;SDS011;3032;49.484;11.112;2023-11-22T12:27:53;7.55;;;6.50;;
6007;SDS011;3032;49.484;11.112;2023-11-22T12:30:29;7.15;;;6.03;;
6007;SDS011;3032;49.484;11.112;2023-11-22T12:33:07;9.70;;;6.85;;
6007;SDS011;3032;49.484;11.112;2023-11-22T12:35:35;7.97;;;6.45;;
6007;SDS011;3032;49.484;11.112;2023-11-22T12:38:02;10.20;;;7.20;;
6007;SDS011;3032;49.484;11.112;2023-11-22T12:40:30;7.65;;;6.30;;
6007;SDS011;3032;49.484;11.112;2023-11-22T12:42:56;8.67;;;6.40;;
6007;SDS011;3032;49.484;11.112;2023-11-22T12:45:23;8.25;;;6.47;;
6007;SDS011;3032;49.484;11.112;2023-11-22T12:47:50;7.20;;;6.10;;
6007;SDS011;3032;49.484;11.112;2023-11-22T12:50:35;7.25;;;6.03;;
6007;SDS011;3032;49.484;11.112;2023-11-22T12:53:12;7.57;;;6.65;;
6007;SDS011;3032;49.484;11.112;2023-11-22T12:55:38;8.63;;;6.68;;
6007;SDS011;3032;49.484;11.112;2023-11-22T12:58:11;8.35;;;6.47;;
6007;SDS011;3032;49.484;11.112;2023-11-22T13:00:37;10.07;;;7.13;;
6007;SDS011;3032;49.484;11.112;2023-11-22T13:03:04;8.05;;;6.20;;
6007;SDS011;3032;49.484;11.112;2023-11-22T13:05:40;9.27;;;6.80;;
6007;SDS011;3032;49.484;11.112;2023-11-22T13:08:08;7.68;;;6.10;;
6007;SDS011;3032;49.484;11.112;2023-11-22T13:13:11;7.65;;;6.47;;
6007;SDS011;3032;49.484;11.112;2023-11-22T13:15:37;8.80;;;6.57;;
6007;SDS011;3032;49.484;11.112;2023-11-22T13:18:03;8.00;;;7.00;;
6007;SDS011;3032;49.484;11.112;2023-11-22T13:20:31;8.60;;;6.70;;
6007;SDS011;3032;49.484;11.112;2023-11-22T13:22:57;11.50;;;6.40;;
6007;SDS011;3032;49.484;11.112;2023-11-22T13:28:00;9.15;;;7.18;;
6007;SDS011;3032;49.484;11.112;2023-11-22T13:33:47;10.25;;;6.80;;
6007;SDS011;3032;49.484;11.112;2023-11-22T13:42:31;10.52;;;7.15;;
6007;SDS011;3032;49.484;11.112;2023-11-22T13:44:57;8.23;;;6.60;;
6007;SDS011;3032;49.484;11.112;2023-11-22T13:47:22;8.23;;;6.60;;
6007;SDS011;3032;49.484;11.112;2023-11-22T13:49:48;10.63;;;6.33;;
6007;SDS011;3032;49.484;11.112;2023-11-22T13:52:14;9.18;;;6.60;;
6007;SDS011;3032;49.484;11.112;2023-11-22T13:54:40;10.17;;;7.00;;
6007;SDS011;3032;49.484;11.112;2023-11-22T13:57:05;9.60;;;7.10;;
6007;SDS011;3032;49.484;11.112;2023-11-22T13:59:31;8.07;;;6.70;;
6007;SDS011;3032;49.484;11.112;2023-11-22T14:01:57;8.60;;;7.00;;
6007;SDS011;3032;49.484;11.112;2023-11-22T14:04:22;7.77;;;6.10;;
6007;SDS011;3032;49.484;11.112;2023-11-22T14:06:48;10.30;;;7.10;;
6007;SDS011;3032;49.484;11.112;2023-11-22T14:09:14;9.30;;;7.33;;
6007;SDS011;3032;49.484;11.112;2023-11-22T14:11:39;8.40;;;7.30;;
6007;SDS011;3032;49.484;11.112;2023-11-22T14:14:05;10.47;;;6.83;;
6007;SDS011;3032;49.484;11.112;2023-11-22T14:16:31;9.43;;;7.70;;
6007;SDS011;3032;49.484;11.112;2023-11-22T14:18:56;12.70;;;8.33;;
6007;SDS011;3032;49.484;11.112;2023-11-22T14:21:25;11.55;;;7.45;;
6007;SDS011;3032;49.484;11.112;2023-11-22T14:23:50;8.53;;;7.30;;
6007;SDS011;3032;49.484;11.112;2023-11-22T14:26:17;8.73;;;7.30;;
6007;SDS011;3032;49.484;11.112;2023-11-22T14:28:43;8.30;;;7.10;;
6007;SDS011;3032;49.484;11.112;2023-11-22T14:31:09;9.77;;;7.43;;
6007;SDS011;3032;49.484;11.112;2023-11-22T14:33:34;9.93;;;7.83;;
6007;SDS011;3032;49.484;11.112;2023-11-22T14:36:00;9.30;;;7.30;;
6007;SDS011;3032;49.484;11.112;2023-11-22T14:38:26;8.53;;;6.73;;
6007;SDS011;3032;49.484;11.112;2023-11-22T14:40:51;8.57;;;7.17;;
6007;SDS011;3032;49.484;11.112;2023-11-22T14:43:17;11.00;;;7.40;;
6007;SDS011;3032;49.484;11.112;2023-11-22T14:45:43;9.80;;;8.17;;
6007;SDS011;3032;49.484;11.112;2023-11-22T14:48:08;8.57;;;6.70;;
6007;SDS011;3032;49.484;11.112;2023-11-22T14:50:35;8.77;;;7.15;;
6007;SDS011;3032;49.484;11.112;2023-11-22T14:53:01;9.67;;;7.20;;
6007;SDS011;3032;49.484;11.112;2023-11-22T14:55:26;7.90;;;6.63;;
6007;SDS011;3032;49.484;11.112;2023-11-22T14:57:52;11.70;;;8.93;;
6007;SDS011;3032;49.484;11.112;2023-11-22T15:00:22;10.20;;;8.00;;
6007;SDS011;3032;49.484;11.112;2023-11-22T15:02:48;9.50;;;7.87;;
6007;SDS011;3032;49.484;11.112;2023-11-22T15:05:19;9.85;;;7.75;;
6007;SDS011;3032;49.484;11.112;2023-11-22T15:07:44;10.17;;;7.80;;
6007;SDS011;3032;49.484;11.112;2023-11-22T15:10:11;14.60;;;7.63;;
6007;SDS011;3032;49.484;11.112;2023-11-22T15:12:37;9.77;;;8.03;;
6007;SDS011;3032;49.484;11.112;2023-11-22T15:15:05;9.30;;;7.63;;
6007;SDS011;3032;49.484;11.112;2023-11-22T15:17:32;9.95;;;7.20;;
6007;SDS011;3032;49.484;11.112;2023-11-22T15:19:57;9.67;;;7.70;;